Absecon Highlands, New Jersey
Current Conditions -  °F | °C
As of 1:54 PM on Friday 21 Nov 2014 (Local Time) from KACY Reporting Station
Clear Clear  
Wind Chill: 26°   Ceiling: Unl
Heat Index: 37°   Visibility: 10mi
Dew Point:   Wind: 21mph
Humidity: 29%   Direction: 290°WNW
Pressure: 30.36"   Gusts: NA
Location:  39.4315°N, 74.5003°W
Report Text: KACY 211854Z 29018KT 10SM CLR 03/M14 A3036 RMK AO2 SLP283 T00281139
Loading
Personal Weather Stations






























Interactive Weather Map New forecast layout! Learn more

10-Day Weather Forecast

Advertisements
Track Severe Weather on mobile